Seiryumaru — JD3476 — position and weather

sailwx.info

Track history (hours):
 
Tides and Currents Weather Stations Pressure Air Temp Water Temp Dewpoint Dewpoint Depression Visibility Wind Speed Wind Dir Waves Ship Positions

Seiryumaru

Last reported at 2018-Jan-20 00:55 UTC. Time now 2018-Jan-20 01:14 UTC.
Position N 34°14' E 132°33'.

Length 61 m; draft 3.5 m.

Type: Cargo ship. MMSI: 431004176.

Date/timePositionNaut miles runAvg speedWind from/ knotsBaromVisibWave heightAir tempDewpointWater temp
2018-Jan-20 00:55N 34°14' E 132°33'0 0.0
2018-Jan-20 00:25N 34°14' E 132°33'0 0.0
2018-Jan-19 23:55N 34°14' E 132°33'0 0.0
2018-Jan-19 23:25N 34°15' E 132°33'0 0.0
2018-Jan-19 22:57N 34°14' E 132°33'0 0.0
2018-Jan-19 22:29N 34°14' E 132°33'0 0.0
2018-Jan-19 22:00N 34°14' E 132°33'0 0.6
2018-Jan-19 21:30N 34°14' E 132°32'0 0.1
2018-Jan-19 21:00N 34°14' E 132°32'0 0.0
2018-Jan-19 20:25N 34°14' E 132°32'0 0.0
2018-Jan-19 19:59N 34°14' E 132°32'1 1.8
2018-Jan-19 19:31N 34°14' E 132°31'611.3
2018-Jan-19 19:00N 34°08' E 132°30'611.7
2018-Jan-19 18:27N 34°05' E 132°23'511.8
2018-Jan-19 18:00N 34°02' E 132°17'611.2
2018-Jan-19 17:30N 33°58' E 132°12'4 8.0
2018-Jan-19 17:00N 33°56' E 132°09'610.4
2018-Jan-19 16:25N 33°50' E 132°09'511.2
2018-Jan-19 16:00N 33°46' E 132°06'1711.3
2018-Jan-19 14:28N 33°32' E 131°54'612.1
2018-Jan-19 13:58N 33°27' E 131°49'612.2
2018-Jan-19 13:28N 33°22' E 131°45'512.1
2018-Jan-19 13:01N 33°18' E 131°41'2 0.1
2018-Jan-18 21:25N 33°16' E 131°40'0 0.6
2018-Jan-18 21:00N 33°16' E 131°40'1 1.2
2018-Jan-18 20:25N 33°17' E 131°40'3 6.6
2018-Jan-18 19:56N 33°16' E 131°36'1 0.3
2018-Jan-18 18:01N 33°15' E 131°36'0 0.0
2018-Jan-18 17:11N 33°15' E 131°36'0 0.0
2018-Jan-18 08:42N 33°15' E 131°36'0 0.0
2018-Jan-18 08:21N 33°15' E 131°36'0 0.0
2018-Jan-18 08:00N 33°15' E 131°36'0 0.1
2018-Jan-18 07:28N 33°15' E 131°36'5 9.9
2018-Jan-18 07:00N 33°19' E 131°39'712.6
2018-Jan-18 06:25N 33°25' E 131°45'512.5
2018-Jan-18 06:01N 33°30' E 131°47'612.8
2018-Jan-18 05:30N 33°36' E 131°45'713.2
2018-Jan-18 05:00N 33°41' E 131°40'713.1
2018-Jan-18 04:30N 33°44' E 131°33'612.6
2018-Jan-18 04:01N 33°47' E 131°26'612.3
2018-Jan-18 03:30N 33°49' E 131°19'612.4
2018-Jan-18 03:00N 33°51' E 131°12'611.9
2018-Jan-18 02:31N 33°55' E 131°06'611.1
2018-Jan-18 02:00N 33°58' E 131°01'4 8.9
2018-Jan-18 01:30N 33°56' E 130°56'3 5.7
2018-Jan-18 01:00N 33°55' E 130°53'1 1.1
2018-Jan-17 23:59N 33°55' E 130°52'0 0.0
2018-Jan-17 23:56N 33°55' E 130°52'  
2018-Jan-12 15:00N 33°26' E 131°49'612.8
2018-Jan-12 14:30N 33°31' E 131°54'712.7
2018-Jan-12 13:57N 33°36' E 132°01'2012.7
2018-Jan-12 12:24N 33°47' E 132°20'912.9
2018-Jan-12 11:42N 33°53' E 132°27'512.5
2018-Jan-12 11:20N 33°57' E 132°32'411.8
2018-Jan-12 10:59N 33°59' E 132°35'611.9
2018-Jan-12 10:30N 34°03' E 132°41'611.7
2018-Jan-12 10:00N 34°06' E 132°47'  
Track history (hours):
 
Tides and Currents Weather Stations Pressure Air Temp Water Temp Dewpoint Dewpoint Depression Visibility Wind Speed Wind Dir Waves Ship Positions

Seiryumaru

Last reported at 2018-Jan-20 00:55 UTC. Time now 2018-Jan-20 01:14 UTC.
Position N 34°14' E 132°33'.

Length 61 m; draft 3.5 m.

Type: Cargo ship. MMSI: 431004176.

Date/timePositionNaut miles runAvg speedWind from/ knotsBaromVisibWave heightAir tempDewpointWater temp
2018-Jan-20 00:55N 34°14' E 132°33'0 0.0
2018-Jan-20 00:25N 34°14' E 132°33'0 0.0
2018-Jan-19 23:55N 34°14' E 132°33'0 0.0
2018-Jan-19 23:25N 34°15' E 132°33'0 0.0
2018-Jan-19 22:57N 34°14' E 132°33'0 0.0
2018-Jan-19 22:29N 34°14' E 132°33'0 0.0
2018-Jan-19 22:00N 34°14' E 132°33'0 0.6
2018-Jan-19 21:30N 34°14' E 132°32'0 0.1
2018-Jan-19 21:00N 34°14' E 132°32'0 0.0
2018-Jan-19 20:25N 34°14' E 132°32'0 0.0
2018-Jan-19 19:59N 34°14' E 132°32'1 1.8
2018-Jan-19 19:31N 34°14' E 132°31'611.3
2018-Jan-19 19:00N 34°08' E 132°30'611.7
2018-Jan-19 18:27N 34°05' E 132°23'511.8
2018-Jan-19 18:00N 34°02' E 132°17'611.2
2018-Jan-19 17:30N 33°58' E 132°12'4 8.0
2018-Jan-19 17:00N 33°56' E 132°09'610.4
2018-Jan-19 16:25N 33°50' E 132°09'511.2
2018-Jan-19 16:00N 33°46' E 132°06'1711.3
2018-Jan-19 14:28N 33°32' E 131°54'612.1
2018-Jan-19 13:58N 33°27' E 131°49'612.2
2018-Jan-19 13:28N 33°22' E 131°45'512.1
2018-Jan-19 13:01N 33°18' E 131°41'2 0.1
2018-Jan-18 21:25N 33°16' E 131°40'0 0.6
2018-Jan-18 21:00N 33°16' E 131°40'1 1.2
2018-Jan-18 20:25N 33°17' E 131°40'3 6.6
2018-Jan-18 19:56N 33°16' E 131°36'1 0.3
2018-Jan-18 18:01N 33°15' E 131°36'0 0.0
2018-Jan-18 17:11N 33°15' E 131°36'0 0.0
2018-Jan-18 08:42N 33°15' E 131°36'0 0.0
2018-Jan-18 08:21N 33°15' E 131°36'0 0.0
2018-Jan-18 08:00N 33°15' E 131°36'0 0.1
2018-Jan-18 07:28N 33°15' E 131°36'5 9.9
2018-Jan-18 07:00N 33°19' E 131°39'712.6
2018-Jan-18 06:25N 33°25' E 131°45'512.5
2018-Jan-18 06:01N 33°30' E 131°47'612.8
2018-Jan-18 05:30N 33°36' E 131°45'713.2
2018-Jan-18 05:00N 33°41' E 131°40'713.1
2018-Jan-18 04:30N 33°44' E 131°33'612.6
2018-Jan-18 04:01N 33°47' E 131°26'612.3
2018-Jan-18 03:30N 33°49' E 131°19'612.4
2018-Jan-18 03:00N 33°51' E 131°12'611.9
2018-Jan-18 02:31N 33°55' E 131°06'611.1
2018-Jan-18 02:00N 33°58' E 131°01'4 8.9
2018-Jan-18 01:30N 33°56' E 130°56'3 5.7
2018-Jan-18 01:00N 33°55' E 130°53'1 1.1
2018-Jan-17 23:59N 33°55' E 130°52'0 0.0
2018-Jan-17 23:56N 33°55' E 130°52'  
2018-Jan-12 15:00N 33°26' E 131°49'612.8
2018-Jan-12 14:30N 33°31' E 131°54'712.7
2018-Jan-12 13:57N 33°36' E 132°01'2012.7
2018-Jan-12 12:24N 33°47' E 132°20'912.9
2018-Jan-12 11:42N 33°53' E 132°27'512.5
2018-Jan-12 11:20N 33°57' E 132°32'411.8
2018-Jan-12 10:59N 33°59' E 132°35'611.9
2018-Jan-12 10:30N 34°03' E 132°41'611.7
2018-Jan-12 10:00N 34°06' E 132°47'  

Dump ship's entire track history